createdAt,value
2017-08-30T00:02:21.429Z,65.00
2017-08-30T00:04:48.578Z,65.00
2017-08-30T00:07:15.756Z,65.00
2017-08-30T00:09:43.914Z,65.00
2017-08-30T00:12:12.077Z,65.00
2017-08-30T00:14:39.201Z,65.00
2017-08-30T00:17:08.126Z,65.30
2017-08-30T00:19:35.378Z,65.00
2017-08-30T00:22:03.450Z,65.00
2017-08-30T00:24:36.745Z,65.00
2017-08-30T00:27:03.888Z,64.90
2017-08-30T00:29:31.049Z,65.00
2017-08-30T00:31:58.302Z,65.00
2017-08-30T00:34:25.562Z,65.00
2017-08-30T00:36:53.670Z,65.00
2017-08-30T00:39:20.813Z,65.00
2017-08-30T00:41:47.955Z,65.00
2017-08-30T00:44:15.089Z,65.00
2017-08-30T00:46:42.356Z,65.00
2017-08-30T00:49:09.497Z,65.00
2017-08-30T00:51:36.762Z,65.00
2017-08-30T00:54:04.835Z,65.10
2017-08-30T00:56:32.006Z,65.10
2017-08-30T00:59:00.030Z,65.00
2017-08-30T01:01:27.181Z,65.10
2017-08-30T01:03:55.256Z,65.00
2017-08-30T01:06:22.390Z,65.10
2017-08-30T01:08:50.403Z,65.10
2017-08-30T01:11:18.333Z,65.10
2017-08-30T01:13:45.470Z,65.00
2017-08-30T01:16:12.650Z,65.10
2017-08-30T01:18:39.786Z,65.00
2017-08-30T01:21:08.615Z,65.00
2017-08-30T01:23:35.750Z,65.00
2017-08-30T01:26:02.888Z,65.00
2017-08-30T01:28:30.044Z,65.00
2017-08-30T01:30:57.194Z,65.00
2017-08-30T01:33:24.335Z,65.00
2017-08-30T01:35:51.469Z,65.00
2017-08-30T01:38:18.612Z,65.00
2017-08-30T01:40:46.622Z,65.10
2017-08-30T01:43:13.890Z,65.10
2017-08-30T01:45:41.130Z,65.00
2017-08-30T01:48:08.380Z,65.00
2017-08-30T01:50:35.513Z,65.00
2017-08-30T01:53:02.680Z,65.00
2017-08-30T01:55:29.958Z,65.00
2017-08-30T01:57:58.005Z,65.00
2017-08-30T02:00:25.261Z,65.00
2017-08-30T02:02:52.519Z,65.00
2017-08-30T02:05:19.757Z,65.00
2017-08-30T02:07:46.897Z,65.00
2017-08-30T02:10:14.042Z,65.00
2017-08-30T02:12:41.225Z,65.00
2017-08-30T02:15:08.470Z,65.00
2017-08-30T02:17:35.610Z,65.00
2017-08-30T02:20:03.510Z,65.00
2017-08-30T02:22:30.749Z,65.00
2017-08-30T02:24:57.993Z,65.00
2017-08-30T02:27:25.249Z,65.00
2017-08-30T02:29:52.382Z,65.00
2017-08-30T02:32:19.553Z,65.00
2017-08-30T02:34:46.683Z,65.00
2017-08-30T02:37:13.854Z,65.00
2017-08-30T02:39:41.107Z,65.00
2017-08-30T02:42:08.254Z,65.00
2017-08-30T02:44:35.496Z,65.00
2017-08-30T02:47:03.405Z,65.00
2017-08-30T02:49:30.634Z,65.00
2017-08-30T02:51:57.781Z,65.00
2017-08-30T02:54:24.930Z,65.00
2017-08-30T02:56:52.099Z,65.00
2017-08-30T02:59:19.245Z,65.00
2017-08-30T03:01:46.487Z,65.00
2017-08-30T03:04:13.627Z,65.00
2017-08-30T03:06:40.894Z,65.00
2017-08-30T03:09:08.035Z,65.00
2017-08-30T03:11:35.174Z,65.00
2017-08-30T03:14:03.070Z,65.00
2017-08-30T03:16:30.319Z,64.90
2017-08-30T03:18:57.465Z,65.00
2017-08-30T03:21:24.654Z,65.60
2017-08-30T03:23:51.794Z,65.00
2017-08-30T03:26:18.933Z,64.90
2017-08-30T03:28:46.075Z,64.90
2017-08-30T03:31:13.226Z,64.90
2017-08-30T03:33:40.354Z,64.80
2017-08-30T03:36:08.355Z,64.90
2017-08-30T03:38:35.495Z,64.90
2017-08-30T03:41:02.659Z,64.80
2017-08-30T03:43:29.806Z,64.90
2017-08-30T03:45:56.944Z,64.80
2017-08-30T03:48:24.099Z,64.70
2017-08-30T03:50:51.354Z,64.80
2017-08-30T03:53:18.606Z,64.80
2017-08-30T03:55:46.459Z,64.80
2017-08-30T03:58:14.361Z,64.80
2017-08-30T04:00:41.594Z,64.80
2017-08-30T04:03:08.848Z,64.90
2017-08-30T04:05:36.099Z,64.80
2017-08-30T04:08:03.250Z,64.80
2017-08-30T04:10:30.393Z,64.90
2017-08-30T04:12:57.530Z,64.80
2017-08-30T04:15:24.669Z,64.80
2017-08-30T04:17:51.821Z,64.70
2017-08-30T04:20:19.010Z,64.70
2017-08-30T04:22:46.158Z,64.80
2017-08-30T04:25:13.409Z,64.70
2017-08-30T04:27:40.583Z,64.70
2017-08-30T04:30:07.794Z,64.70
2017-08-30T04:32:34.970Z,64.80
2017-08-30T04:35:02.225Z,64.80
2017-08-30T04:37:29.474Z,64.70
2017-08-30T04:39:56.751Z,64.80
2017-08-30T04:42:23.986Z,64.70
2017-08-30T04:44:51.290Z,64.80
2017-08-30T04:47:18.621Z,64.90
2017-08-30T04:49:45.851Z,64.80
2017-08-30T04:52:12.994Z,65.30
2017-08-30T04:54:40.126Z,64.90
2017-08-30T04:57:07.306Z,64.90
2017-08-30T04:59:34.437Z,64.90
2017-08-30T05:02:02.421Z,65.00
2017-08-30T05:04:29.680Z,65.10
2017-08-30T05:06:56.924Z,65.10
2017-08-30T05:09:24.885Z,65.00
2017-08-30T05:11:52.465Z,65.00
2017-08-30T05:14:19.723Z,65.10
2017-08-30T05:16:46.974Z,65.40
2017-08-30T05:19:14.229Z,65.50
2017-08-30T05:21:41.373Z,65.40
2017-08-30T05:24:08.534Z,65.40
2017-08-30T05:26:35.707Z,65.30
2017-08-30T05:29:03.029Z,65.30
2017-08-30T05:31:30.207Z,65.30
2017-08-30T05:33:57.354Z,65.00
2017-08-30T05:36:24.597Z,64.90
2017-08-30T05:38:51.763Z,64.50
2017-08-30T05:41:18.901Z,64.50
2017-08-30T05:43:46.085Z,64.70
2017-08-30T05:46:13.261Z,64.70
2017-08-30T05:48:40.570Z,64.60
2017-08-30T05:51:07.827Z,64.50
2017-08-30T05:53:35.053Z,65.30
2017-08-30T05:56:02.198Z,64.70
2017-08-30T05:58:29.385Z,65.10
2017-08-30T06:00:56.569Z,64.60
2017-08-30T06:03:23.761Z,64.70
2017-08-30T06:05:50.897Z,64.60
2017-08-30T06:08:18.058Z,64.80
2017-08-30T06:10:45.195Z,64.90
2017-08-30T06:13:12.465Z,65.20
2017-08-30T06:15:39.717Z,64.90
2017-08-30T06:18:06.869Z,64.80
2017-08-30T06:20:34.119Z,64.70
2017-08-30T06:23:01.278Z,64.90
2017-08-30T06:25:28.426Z,64.80
2017-08-30T06:27:55.603Z,65.10
2017-08-30T06:30:22.781Z,65.00
2017-08-30T06:32:49.986Z,65.10
2017-08-30T06:35:19.102Z,65.30
2017-08-30T06:37:46.270Z,65.20
2017-08-30T06:40:13.504Z,65.20
2017-08-30T06:42:40.655Z,65.00
2017-08-30T06:45:07.789Z,65.10
2017-08-30T06:47:35.033Z,65.40
2017-08-30T06:50:02.287Z,65.60
2017-08-30T06:52:29.538Z,65.30
2017-08-30T06:54:56.725Z,65.20
2017-08-30T06:57:23.857Z,65.10
2017-08-30T06:59:51.094Z,65.00
2017-08-30T07:02:19.036Z,65.00
2017-08-30T07:04:46.345Z,64.90
2017-08-30T07:07:13.486Z,65.00
2017-08-30T07:09:40.750Z,64.90
2017-08-30T07:12:07.896Z,64.80
2017-08-30T07:14:35.091Z,64.70
2017-08-30T07:17:02.409Z,64.70
2017-08-30T07:19:29.662Z,64.90
2017-08-30T07:21:56.915Z,64.90
2017-08-30T07:24:24.147Z,64.80
2017-08-30T07:26:51.398Z,64.80
2017-08-30T07:29:18.650Z,64.80
2017-08-30T07:31:45.901Z,64.80
2017-08-30T07:34:13.054Z,64.80
2017-08-30T07:36:40.192Z,64.80
2017-08-30T07:39:07.355Z,64.80
2017-08-30T07:41:34.605Z,64.70
2017-08-30T07:44:01.862Z,64.70
2017-08-30T07:46:29.114Z,64.70
2017-08-30T07:48:56.245Z,64.80
2017-08-30T07:51:23.521Z,64.80
2017-08-30T07:53:50.665Z,64.90
2017-08-30T07:56:17.810Z,64.80
2017-08-30T07:58:44.985Z,64.70
2017-08-30T08:01:13.662Z,64.80
2017-08-30T08:03:40.835Z,64.90
2017-08-30T08:06:08.070Z,64.90
2017-08-30T08:08:35.317Z,65.00
2017-08-30T08:11:02.461Z,64.90
2017-08-30T08:13:29.725Z,64.90
2017-08-30T08:15:56.984Z,65.00
2017-08-30T08:18:24.227Z,64.90
2017-08-30T08:20:51.485Z,65.00
2017-08-30T08:23:18.740Z,65.00
2017-08-30T08:25:45.873Z,65.00
2017-08-30T08:28:13.140Z,65.00
2017-08-30T08:30:40.393Z,65.10
2017-08-30T08:33:07.539Z,65.00
2017-08-30T08:35:34.799Z,65.00
2017-08-30T08:38:01.945Z,65.00
2017-08-30T08:40:29.098Z,65.10
2017-08-30T08:42:56.999Z,65.10
2017-08-30T08:45:24.186Z,65.10
2017-08-30T08:47:51.371Z,65.20
2017-08-30T08:50:18.549Z,65.20
2017-08-30T08:52:45.682Z,65.20
2017-08-30T08:55:12.855Z,65.40
2017-08-30T08:57:40.078Z,65.40
2017-08-30T09:00:07.329Z,65.30
2017-08-30T09:02:34.587Z,65.50
2017-08-30T09:05:01.838Z,65.40
2017-08-30T09:07:29.090Z,65.40
2017-08-30T09:09:56.245Z,65.30
2017-08-30T09:12:23.498Z,65.40
2017-08-30T09:14:50.749Z,65.40
2017-08-30T09:17:21.820Z,65.50
2017-08-30T09:19:48.998Z,65.50
2017-08-30T09:22:16.230Z,65.70
2017-08-30T09:24:43.480Z,65.60
2017-08-30T09:27:10.675Z,65.70
2017-08-30T09:29:37.831Z,65.60
2017-08-30T09:32:05.072Z,65.70
2017-08-30T09:34:32.213Z,65.80
2017-08-30T09:36:59.410Z,65.60
2017-08-30T09:39:26.662Z,65.60
2017-08-30T09:41:53.914Z,65.60
2017-08-30T09:44:21.065Z,65.70
2017-08-30T09:46:48.215Z,65.90
2017-08-30T09:49:16.400Z,65.80
2017-08-30T09:51:43.547Z,65.70
2017-08-30T09:54:10.743Z,65.70
2017-08-30T09:56:37.950Z,65.70
2017-08-30T09:59:05.091Z,65.70
2017-08-30T10:01:33.069Z,65.70
2017-08-30T10:04:00.962Z,65.70
2017-08-30T10:06:28.190Z,65.70
2017-08-30T10:08:55.338Z,65.80
2017-08-30T10:11:22.602Z,65.90
2017-08-30T10:13:49.846Z,65.90
2017-08-30T10:16:16.980Z,65.90
2017-08-30T10:18:44.275Z,65.90
2017-08-30T10:21:11.509Z,66.10
2017-08-30T10:23:38.701Z,66.10
2017-08-30T10:26:05.905Z,66.20
2017-08-30T10:28:33.158Z,66.20
2017-08-30T10:31:00.299Z,66.30
2017-08-30T10:33:27.470Z,66.10
2017-08-30T10:35:54.718Z,66.20
2017-08-30T10:38:21.848Z,66.20
2017-08-30T10:40:49.755Z,66.20
2017-08-30T10:43:16.990Z,66.20
2017-08-30T10:45:44.178Z,66.10
2017-08-30T10:48:11.397Z,66.10
2017-08-30T10:50:38.640Z,66.00
2017-08-30T10:53:05.821Z,66.10
2017-08-30T10:55:33.049Z,66.20
2017-08-30T10:58:00.213Z,66.20
2017-08-30T11:00:27.459Z,66.10
2017-08-30T11:02:54.612Z,66.10
2017-08-30T11:05:21.857Z,66.00
2017-08-30T11:07:49.005Z,65.90
2017-08-30T11:10:16.150Z,65.90
2017-08-30T11:12:44.135Z,65.90
2017-08-30T11:15:11.409Z,65.80
2017-08-30T11:17:38.664Z,65.80
2017-08-30T11:20:06.020Z,65.80
2017-08-30T11:22:33.254Z,65.80
2017-08-30T11:25:00.399Z,65.80
2017-08-30T11:27:27.582Z,65.70
2017-08-30T11:29:54.798Z,65.60
2017-08-30T11:32:21.977Z,65.70
2017-08-30T11:34:49.210Z,65.60
2017-08-30T11:37:16.484Z,65.60
2017-08-30T11:39:43.714Z,65.60
2017-08-30T11:42:10.958Z,65.50
2017-08-30T11:44:38.246Z,65.50
2017-08-30T11:47:05.479Z,65.40
2017-08-30T11:49:32.650Z,65.30
2017-08-30T11:51:59.791Z,65.30
2017-08-30T11:54:27.025Z,65.20
2017-08-30T11:56:54.169Z,65.20
2017-08-30T11:59:21.328Z,65.20
2017-08-30T12:01:48.578Z,65.30
2017-08-30T12:04:15.718Z,65.20
2017-08-30T12:06:42.860Z,65.00
2017-08-30T12:09:09.999Z,65.10
2017-08-30T12:11:37.187Z,64.80
2017-08-30T12:14:04.333Z,64.70
2017-08-30T12:16:31.470Z,64.60
2017-08-30T12:18:58.605Z,64.60
2017-08-30T12:21:25.890Z,64.60
2017-08-30T12:23:53.145Z,64.60
2017-08-30T12:26:20.281Z,64.50
2017-08-30T12:28:47.460Z,64.60
2017-08-30T12:31:14.604Z,64.70
2017-08-30T12:33:41.849Z,64.50
2017-08-30T12:36:09.030Z,64.50
2017-08-30T12:38:41.954Z,64.50
2017-08-30T12:41:09.141Z,64.30
2017-08-30T12:43:36.281Z,64.20
2017-08-30T12:46:03.414Z,64.10
2017-08-30T12:48:30.561Z,64.20
2017-08-30T12:50:57.734Z,64.80
2017-08-30T12:53:24.919Z,64.20
2017-08-30T12:55:52.151Z,64.10
2017-08-30T12:58:19.397Z,64.30
2017-08-30T13:00:46.538Z,64.30
2017-08-30T13:03:13.677Z,64.20
2017-08-30T13:05:40.818Z,64.10
2017-08-30T13:08:08.006Z,64.30
2017-08-30T13:10:35.155Z,64.20
2017-08-30T13:13:02.410Z,64.10
2017-08-30T13:15:29.658Z,64.20
2017-08-30T13:17:56.800Z,64.20
2017-08-30T13:20:23.945Z,64.20
2017-08-30T13:22:51.890Z,64.50
2017-08-30T13:25:19.030Z,64.50
2017-08-30T13:27:46.238Z,64.30
2017-08-30T13:30:13.487Z,64.00
2017-08-30T13:32:40.664Z,64.10
2017-08-30T13:35:08.041Z,64.50
2017-08-30T13:37:35.242Z,64.30
2017-08-30T13:40:02.395Z,64.40
2017-08-30T13:42:29.649Z,64.60
2017-08-30T13:44:56.903Z,64.60
2017-08-30T13:47:24.157Z,64.40
2017-08-30T13:49:51.331Z,64.50
2017-08-30T13:52:18.553Z,64.50
2017-08-30T13:54:45.709Z,64.50
2017-08-30T13:57:12.858Z,64.30
2017-08-30T13:59:39.990Z,64.40
2017-08-30T14:02:07.993Z,64.50
2017-08-30T14:04:35.233Z,64.50
2017-08-30T14:07:02.390Z,64.40
2017-08-30T14:09:29.563Z,64.40
2017-08-30T14:11:56.699Z,64.70
2017-08-30T14:14:23.889Z,64.50
2017-08-30T14:16:51.025Z,64.70
2017-08-30T14:19:18.160Z,64.70
2017-08-30T14:21:46.109Z,64.70
2017-08-30T14:24:13.266Z,65.30
2017-08-30T14:26:40.522Z,64.70
2017-08-30T14:29:07.674Z,64.80
2017-08-30T14:31:34.921Z,64.70
2017-08-30T14:34:02.106Z,64.70
2017-08-30T14:36:29.350Z,64.80
2017-08-30T14:38:56.596Z,64.90
2017-08-30T14:41:23.855Z,64.80
2017-08-30T14:43:51.086Z,64.80
2017-08-30T14:46:18.237Z,64.90
2017-08-30T14:48:45.490Z,64.70
2017-08-30T14:51:12.750Z,64.70
2017-08-30T14:53:39.996Z,64.80
2017-08-30T14:56:07.128Z,64.60
2017-08-30T14:58:34.299Z,64.70
2017-08-30T15:01:01.549Z,64.70
2017-08-30T15:03:28.794Z,64.70
2017-08-30T15:05:55.934Z,64.40
2017-08-30T15:08:23.070Z,64.60
2017-08-30T15:10:50.206Z,64.40
2017-08-30T15:13:17.429Z,64.30
2017-08-30T15:15:44.576Z,64.40
2017-08-30T15:18:11.866Z,64.30
2017-08-30T15:20:39.086Z,64.30
2017-08-30T15:23:06.313Z,64.30
2017-08-30T15:25:33.465Z,64.50
2017-08-30T15:28:00.719Z,64.50
2017-08-30T15:30:27.869Z,64.60
2017-08-30T15:32:55.068Z,64.60
2017-08-30T15:35:22.214Z,64.40
2017-08-30T15:37:49.430Z,64.50
2017-08-30T15:40:16.565Z,64.60
2017-08-30T15:42:43.697Z,64.30
2017-08-30T15:45:10.878Z,64.30
2017-08-30T15:47:38.017Z,64.00
2017-08-30T15:50:06.027Z,64.00
2017-08-30T15:52:33.277Z,64.00
2017-08-30T15:55:00.415Z,64.00
2017-08-30T15:57:27.784Z,63.80
2017-08-30T15:59:55.146Z,63.80
2017-08-30T16:02:22.295Z,64.10
2017-08-30T16:04:49.478Z,64.20
2017-08-30T16:07:16.620Z,64.20
2017-08-30T16:09:43.844Z,63.90
2017-08-30T16:12:11.098Z,64.00
2017-08-30T16:14:38.286Z,64.30
2017-08-30T16:17:05.425Z,64.00
2017-08-30T16:19:32.562Z,64.10
2017-08-30T16:21:59.703Z,64.30
2017-08-30T16:24:26.943Z,64.10
2017-08-30T16:26:54.082Z,64.10
2017-08-30T16:29:21.341Z,64.30
2017-08-30T16:31:48.487Z,64.20
2017-08-30T16:34:15.619Z,64.30
2017-08-30T16:36:43.606Z,61.90
2017-08-30T16:39:11.015Z,61.90
2017-08-30T16:41:38.218Z,60.10
2017-08-30T16:44:05.472Z,59.70
2017-08-30T16:46:32.650Z,59.40
2017-08-30T16:48:59.792Z,59.40
2017-08-30T16:51:26.967Z,58.60
2017-08-30T16:53:54.102Z,58.70
2017-08-30T16:56:21.239Z,59.00
2017-08-30T16:58:48.477Z,58.90
2017-08-30T17:01:15.663Z,58.80
2017-08-30T17:03:42.909Z,58.80
2017-08-30T17:06:10.103Z,58.80
2017-08-30T17:08:37.250Z,59.00
2017-08-30T17:11:04.439Z,58.90
2017-08-30T17:13:31.692Z,59.10
2017-08-30T17:15:58.873Z,59.50
2017-08-30T17:18:26.063Z,59.60
2017-08-30T17:20:53.246Z,59.90
2017-08-30T17:23:20.398Z,61.00
2017-08-30T17:25:47.645Z,60.30
2017-08-30T17:28:14.782Z,60.50
2017-08-30T17:30:42.062Z,60.40
2017-08-30T17:33:09.198Z,60.60
2017-08-30T17:35:36.764Z,60.60
2017-08-30T17:38:04.356Z,60.90
2017-08-30T17:40:31.546Z,61.20
2017-08-30T17:42:58.727Z,61.30
2017-08-30T17:45:25.943Z,62.10
2017-08-30T17:47:53.238Z,62.70
2017-08-30T17:50:20.623Z,63.00
2017-08-30T17:52:47.801Z,63.40
2017-08-30T17:55:15.102Z,63.00
2017-08-30T17:57:42.509Z,62.20
2017-08-30T18:00:09.659Z,62.40
2017-08-30T18:02:36.871Z,62.50
2017-08-30T18:05:04.124Z,62.40
2017-08-30T18:07:31.370Z,62.50
2017-08-30T18:09:58.628Z,62.50
2017-08-30T18:12:25.802Z,62.50
2017-08-30T18:14:52.945Z,62.50
2017-08-30T18:17:20.086Z,62.40
2017-08-30T18:19:47.333Z,62.50
2017-08-30T18:22:14.518Z,62.90
2017-08-30T18:24:41.702Z,62.90
2017-08-30T18:27:08.851Z,62.70
2017-08-30T18:29:36.045Z,62.40
2017-08-30T18:32:03.193Z,62.50
2017-08-30T18:34:30.585Z,62.60
2017-08-30T18:36:58.044Z,62.70
2017-08-30T18:39:25.244Z,62.80
2017-08-30T18:41:52.577Z,63.10
2017-08-30T18:44:20.565Z,63.20
2017-08-30T18:46:47.778Z,63.10
2017-08-30T18:49:16.445Z,63.20
2017-08-30T18:51:44.510Z,63.10
2017-08-30T18:54:11.772Z,63.10
2017-08-30T18:56:38.919Z,63.10
2017-08-30T18:59:06.169Z,63.40
2017-08-30T19:01:33.422Z,63.30
2017-08-30T19:04:00.607Z,63.40
2017-08-30T19:06:27.786Z,63.50
2017-08-30T19:08:55.067Z,63.60
2017-08-30T19:11:22.318Z,63.70
2017-08-30T19:13:49.590Z,63.80
2017-08-30T19:16:16.735Z,64.00
2017-08-30T19:18:43.991Z,64.20
2017-08-30T19:21:11.243Z,64.30
2017-08-30T19:23:38.496Z,64.10
2017-08-30T19:26:05.729Z,64.40
2017-08-30T19:28:33.252Z,64.40
2017-08-30T19:31:00.483Z,64.40
2017-08-30T19:33:27.924Z,65.00
2017-08-30T19:35:55.152Z,64.30
2017-08-30T19:38:22.313Z,64.40
2017-08-30T19:40:49.578Z,64.30
2017-08-30T19:43:16.849Z,64.30
2017-08-30T19:45:44.007Z,64.30
2017-08-30T19:48:11.214Z,64.30
2017-08-30T19:50:38.459Z,64.30
2017-08-30T19:53:05.698Z,64.10
2017-08-30T19:55:32.851Z,64.10
2017-08-30T19:58:00.186Z,64.20
2017-08-30T20:00:28.189Z,64.30
2017-08-30T20:02:55.448Z,64.20
2017-08-30T20:05:22.626Z,64.30
2017-08-30T20:07:49.855Z,64.30
2017-08-30T20:10:17.118Z,64.30
2017-08-30T20:12:44.359Z,64.40
2017-08-30T20:15:11.639Z,64.40
2017-08-30T20:17:38.870Z,64.50
2017-08-30T20:20:08.102Z,64.50
2017-08-30T20:22:35.316Z,64.50
2017-08-30T20:25:02.574Z,64.50
2017-08-30T20:27:29.788Z,64.40
2017-08-30T20:29:56.972Z,64.40
2017-08-30T20:32:24.228Z,64.50
2017-08-30T20:34:51.485Z,63.80
2017-08-30T20:37:18.754Z,64.00
2017-08-30T20:39:45.898Z,64.10
2017-08-30T20:42:13.068Z,64.20
2017-08-30T20:44:41.465Z,64.30
2017-08-30T20:47:16.001Z,64.30
2017-08-30T20:49:44.793Z,64.30
2017-08-30T20:52:12.005Z,64.10
2017-08-30T20:54:40.105Z,64.00
2017-08-30T20:57:07.306Z,64.00
2017-08-30T20:59:34.588Z,64.10
2017-08-30T21:02:01.721Z,64.10
2017-08-30T21:04:28.958Z,64.10
2017-08-30T21:06:56.165Z,64.00
2017-08-30T21:09:23.467Z,63.70
2017-08-30T21:11:50.721Z,63.80
2017-08-30T21:14:17.865Z,63.80
2017-08-30T21:16:45.815Z,63.90
2017-08-30T21:19:12.962Z,63.90
2017-08-30T21:21:40.275Z,64.00
2017-08-30T21:24:07.421Z,64.10
2017-08-30T21:26:34.561Z,64.10
2017-08-30T21:29:01.701Z,64.00
2017-08-30T21:31:28.858Z,64.00
2017-08-30T21:33:56.111Z,64.00
2017-08-30T21:36:23.358Z,64.00
2017-08-30T21:38:50.542Z,64.00
2017-08-30T21:41:17.766Z,64.00
2017-08-30T21:43:45.026Z,64.00
2017-08-30T21:46:19.156Z,64.10
2017-08-30T21:48:46.382Z,64.20
2017-08-30T21:56:04.281Z,64.40
2017-08-30T21:58:32.125Z,62.90
2017-08-30T22:00:59.418Z,62.30
2017-08-30T22:03:26.562Z,62.10
2017-08-30T22:05:53.770Z,62.10
2017-08-30T22:08:21.750Z,62.10
2017-08-30T22:10:49.005Z,62.20
2017-08-30T22:13:16.258Z,62.20
2017-08-30T22:15:43.410Z,62.10
2017-08-30T22:18:10.653Z,62.20
2017-08-30T22:20:37.814Z,62.90
2017-08-30T22:23:05.066Z,62.30
2017-08-30T22:25:32.317Z,62.30
2017-08-30T22:27:59.489Z,62.30
